Loudonville, New York
Current Conditions -  °F | °C
As of 8:51 AM on Friday 19 Dec 2014 (Local Time) from KALB Reporting Station
Overcast Overcast  
Wind Chill: 20°   Ceiling: 3500
Heat Index: 30°   Visibility: 10mi
Dew Point: 20°   Wind: 13mph
Humidity: 66%   Direction: 300°WNW
Pressure: 30.05"   Gusts: NA
Location:  42.71°N, 73.75°W
Report Text: KALB 191351Z 30011KT 10SM SCT023 BKN035 OVC055 M01/M07 A3005 RMK AO2 SLP179 T10111067
Loading
Personal Weather Stations






























Interactive Weather Map New forecast layout! Learn more

10-Day Weather Forecast

Advertisements
Track Severe Weather on mobile